createdAt,value
2022-09-11T00:01:49.094Z,2.00
2022-09-11T00:04:35.668Z,2.60
2022-09-11T00:07:22.270Z,3.17
2022-09-11T00:10:08.558Z,2.15
2022-09-11T00:12:54.544Z,2.28
2022-09-11T00:15:44.523Z,2.42
2022-09-11T00:18:30.718Z,1.92
2022-09-11T00:21:17.715Z,1.10
2022-09-11T00:24:04.637Z,2.03
2022-09-11T00:26:50.606Z,1.33
2022-09-11T00:29:36.801Z,3.78
2022-09-11T00:32:22.575Z,2.53
2022-09-11T00:35:09.180Z,1.90
2022-09-11T00:37:57.723Z,2.35
2022-09-11T00:40:48.213Z,2.78
2022-09-11T00:44:02.964Z,2.45
2022-09-11T00:46:54.469Z,1.25
2022-09-11T00:49:52.318Z,2.13
2022-09-11T00:52:42.501Z,3.20
2022-09-11T00:55:32.791Z,3.28
2022-09-11T00:58:22.939Z,1.52
2022-09-11T01:01:09.333Z,2.22
2022-09-11T01:03:57.183Z,1.00
2022-09-11T01:06:44.196Z,1.90
2022-09-11T01:09:31.714Z,1.70
2022-09-11T01:12:26.099Z,2.80
2022-09-11T01:15:39.403Z,1.75
2022-09-11T01:18:32.041Z,4.00
2022-09-11T01:21:21.199Z,1.42
2022-09-11T01:24:28.975Z,1.60
2022-09-11T01:27:44.542Z,3.08
2022-09-11T01:30:38.812Z,2.17
2022-09-11T01:33:28.891Z,1.73
2022-09-11T01:36:21.938Z,2.50
2022-09-11T01:39:08.537Z,1.70
2022-09-11T01:42:04.450Z,2.20
2022-09-11T01:44:55.756Z,1.75
2022-09-11T01:47:43.374Z,5.38
2022-09-11T01:50:31.813Z,2.85
2022-09-11T01:53:22.412Z,3.90
2022-09-11T01:56:13.819Z,2.78
2022-09-11T01:59:12.591Z,3.90
2022-09-11T02:02:04.585Z,2.22
2022-09-11T02:05:23.357Z,2.15
2022-09-11T02:08:14.660Z,1.60
2022-09-11T02:11:09.646Z,5.20
2022-09-11T02:14:06.582Z,2.75
2022-09-11T02:17:25.005Z,2.13
2022-09-11T02:20:15.601Z,4.40
2022-09-11T02:23:03.224Z,3.85
2022-09-11T02:25:49.514Z,2.42
2022-09-11T02:28:37.648Z,3.70
2022-09-11T02:31:24.964Z,3.85
2022-09-11T02:34:13.212Z,2.25
2022-09-11T02:37:09.317Z,1.80
2022-09-11T02:40:07.001Z,1.95
2022-09-11T02:43:10.246Z,2.13
2022-09-11T02:46:17.213Z,2.97
2022-09-11T02:49:19.977Z,3.08
2022-09-11T02:52:42.698Z,1.60
2022-09-11T02:55:39.536Z,1.67
2022-09-11T02:58:39.954Z,3.35
2022-09-11T03:01:30.537Z,2.03
2022-09-11T03:04:19.185Z,4.35
2022-09-11T03:07:06.093Z,2.83
2022-09-11T03:09:52.690Z,3.30
2022-09-11T03:12:42.257Z,3.28
2022-09-11T03:15:30.388Z,4.03
2022-09-11T03:18:16.275Z,4.18
2022-09-11T03:21:03.905Z,4.05
2022-09-11T03:23:50.089Z,1.23
2022-09-11T03:26:37.401Z,2.00
2022-09-11T03:29:23.696Z,2.22
2022-09-11T03:32:10.502Z,3.92
2022-09-11T03:34:57.102Z,3.25
2022-09-11T03:37:43.291Z,1.75
2022-09-11T03:40:30.194Z,2.45
2022-09-11T03:43:17.100Z,5.18
2022-09-11T03:46:07.195Z,2.90
2022-09-11T03:48:54.496Z,3.30
2022-09-11T03:51:40.993Z,3.75
2022-09-11T03:54:28.306Z,2.60
2022-09-11T03:57:15.015Z,1.80
2022-09-11T04:00:01.916Z,3.38
2022-09-11T04:03:07.959Z,2.95
2022-09-11T04:06:02.850Z,1.85
2022-09-11T04:08:51.906Z,3.15
2022-09-11T04:11:40.342Z,3.30
2022-09-11T04:14:40.550Z,3.45
2022-09-11T04:17:26.440Z,2.55
2022-09-11T04:20:13.453Z,4.68
2022-09-11T04:22:59.432Z,5.15
2022-09-11T04:25:45.320Z,2.83
2022-09-11T04:28:32.834Z,2.95
2022-09-11T04:31:21.746Z,2.58
2022-09-11T04:34:07.671Z,1.83
2022-09-11T04:36:56.521Z,2.38
2022-09-11T04:39:43.479Z,5.70
2022-09-11T04:42:29.621Z,2.45
2022-09-11T04:45:17.135Z,2.03
2022-09-11T04:48:03.742Z,2.00
2022-09-11T04:50:51.366Z,5.43
2022-09-11T04:53:42.330Z,2.97
2022-09-11T04:56:31.208Z,3.40
2022-09-11T04:59:22.720Z,3.08
2022-09-11T05:02:15.312Z,3.08
2022-09-11T05:05:07.583Z,2.22
2022-09-11T05:07:53.995Z,2.67
2022-09-11T05:10:40.174Z,3.30
2022-09-11T05:13:27.795Z,2.88
2022-09-11T05:16:16.402Z,4.10
2022-09-11T05:19:05.301Z,3.90
2022-09-11T05:21:53.323Z,4.00
2022-09-11T05:24:39.920Z,4.43
2022-09-11T05:27:25.816Z,3.47
2022-09-11T05:30:13.018Z,3.33
2022-09-11T05:32:59.104Z,3.90
2022-09-11T05:35:45.405Z,2.88
2022-09-11T05:38:34.551Z,4.03
2022-09-11T05:41:20.745Z,2.13
2022-09-11T05:44:07.037Z,6.25
2022-09-11T05:46:55.786Z,2.47
2022-09-11T05:49:43.100Z,6.45
2022-09-11T05:52:30.616Z,3.47
2022-09-11T05:55:17.939Z,2.85
2022-09-11T05:58:04.447Z,4.47
2022-09-11T06:00:50.788Z,3.25
2022-09-11T06:03:38.716Z,5.20
2022-09-11T06:06:26.281Z,3.70
2022-09-11T06:09:13.082Z,4.82
2022-09-11T06:12:01.218Z,3.88
2022-09-11T06:14:47.917Z,6.28
2022-09-11T06:17:34.619Z,3.13
2022-09-11T06:20:20.912Z,2.88
2022-09-11T06:23:11.603Z,3.05
2022-09-11T06:26:09.885Z,3.65
2022-09-11T06:29:01.075Z,4.57
2022-09-11T06:31:48.596Z,5.22
2022-09-11T06:34:34.899Z,3.75
2022-09-11T06:37:25.682Z,4.03
2022-09-11T06:40:13.659Z,3.40
2022-09-11T06:42:59.801Z,7.38
2022-09-11T06:45:48.693Z,2.72
2022-09-11T06:48:35.579Z,4.75
2022-09-11T06:51:24.011Z,3.15
2022-09-11T06:54:11.927Z,4.60
2022-09-11T06:56:58.116Z,7.35
2022-09-11T06:59:44.210Z,5.47
2022-09-11T07:02:30.702Z,6.22
2022-09-11T07:05:18.018Z,4.45
2022-09-11T07:08:07.277Z,4.63
2022-09-11T07:10:56.129Z,3.15
2022-09-11T07:13:42.023Z,3.30
2022-09-11T07:16:28.259Z,7.50
2022-09-11T07:19:15.008Z,4.95
2022-09-11T07:22:01.195Z,3.83
2022-09-11T07:24:47.585Z,4.53
2022-09-11T07:27:34.287Z,2.67
2022-09-11T07:30:21.610Z,4.97
2022-09-11T07:33:11.378Z,5.20
2022-09-11T07:35:57.984Z,3.85
2022-09-11T07:38:47.241Z,4.97
2022-09-11T07:41:34.061Z,6.10
2022-09-11T07:44:24.324Z,4.13
2022-09-11T07:47:11.229Z,5.07
2022-09-11T07:50:02.550Z,4.15
2022-09-11T07:52:50.261Z,4.88
2022-09-11T07:55:36.456Z,6.00
2022-09-11T07:58:23.359Z,3.90
2022-09-11T08:01:11.944Z,6.32
2022-09-11T08:04:05.765Z,8.57
2022-09-11T08:07:41.586Z,4.53
2022-09-11T08:10:28.517Z,3.65
2022-09-11T08:13:17.040Z,4.00
2022-09-11T08:16:04.697Z,4.88
2022-09-11T08:18:52.282Z,3.53
2022-09-11T08:21:38.061Z,4.32
2022-09-11T08:24:24.660Z,4.38
2022-09-11T08:27:15.063Z,4.93
2022-09-11T08:30:01.954Z,4.78
2022-09-11T08:32:47.939Z,4.47
2022-09-11T08:35:34.232Z,4.55
2022-09-11T08:38:20.214Z,5.80
2022-09-11T08:41:23.699Z,4.90
2022-09-11T08:44:09.887Z,5.75
2022-09-11T08:47:06.825Z,6.78
2022-09-11T08:50:00.081Z,5.63
2022-09-11T08:52:49.030Z,6.70
2022-09-11T08:55:39.823Z,6.00
2022-09-11T08:58:40.752Z,7.38
2022-09-11T09:01:47.469Z,8.10
2022-09-11T09:04:41.684Z,6.95
2022-09-11T09:07:39.862Z,8.13
2022-09-11T09:10:43.654Z,5.80
2022-09-11T09:13:45.331Z,6.10
2022-09-11T09:16:55.136Z,5.38
2022-09-11T09:19:46.452Z,7.00
2022-09-11T09:22:50.012Z,4.75
2022-09-11T09:25:37.524Z,5.82
2022-09-11T09:28:35.804Z,9.02
2022-09-11T09:31:23.779Z,6.30
2022-09-11T09:34:22.186Z,6.50
2022-09-11T09:37:21.472Z,6.15
2022-09-11T09:40:10.675Z,5.78
2022-09-11T09:43:12.479Z,5.13
2022-09-11T09:46:16.105Z,6.90
2022-09-11T09:49:02.366Z,7.28
2022-09-11T09:51:50.185Z,6.13
2022-09-11T09:54:36.715Z,6.72
2022-09-11T09:57:25.647Z,6.30
2022-09-11T10:00:12.233Z,6.70
2022-09-11T10:03:18.579Z,6.45
2022-09-11T10:06:07.253Z,5.90
2022-09-11T10:09:00.125Z,6.20
2022-09-11T10:11:52.571Z,8.60
2022-09-11T10:14:51.502Z,7.53
2022-09-11T10:17:38.367Z,6.15
2022-09-11T10:20:26.669Z,6.32
2022-09-11T10:23:28.380Z,5.43
2022-09-11T10:26:16.586Z,6.15
2022-09-11T10:29:07.961Z,5.10
2022-09-11T10:31:56.653Z,5.15
2022-09-11T10:34:43.748Z,4.90
2022-09-11T10:37:29.907Z,4.30
2022-09-11T10:40:24.618Z,5.18
2022-09-11T10:43:26.107Z,5.20
2022-09-11T10:46:18.849Z,3.75
2022-09-11T10:49:07.184Z,4.95
2022-09-11T10:52:27.339Z,3.97
2022-09-11T10:55:16.299Z,4.20
2022-09-11T10:58:14.449Z,3.20
2022-09-11T11:01:00.643Z,3.00
2022-09-11T11:03:47.958Z,2.85
2022-09-11T11:06:48.376Z,3.45
2022-09-11T11:09:47.155Z,1.83
2022-09-11T11:12:46.232Z,1.83
2022-09-11T11:15:53.640Z,2.60
2022-09-11T11:19:07.114Z,2.50
2022-09-11T11:22:09.597Z,2.40
2022-09-11T11:25:15.819Z,1.77
2022-09-11T11:28:14.141Z,4.00
2022-09-11T11:31:15.805Z,1.92
2022-09-11T11:34:52.529Z,1.77
2022-09-11T11:37:41.385Z,2.13
2022-09-11T11:40:32.666Z,1.75
2022-09-11T11:43:21.224Z,2.78
2022-09-11T11:46:20.277Z,4.07
2022-09-11T11:49:11.041Z,3.03
2022-09-11T11:52:20.464Z,2.78
2022-09-11T11:55:27.283Z,3.40
2022-09-11T11:58:36.410Z,3.33
2022-09-11T12:01:25.854Z,2.83
2022-09-11T12:04:34.141Z,2.47
2022-09-11T12:07:26.096Z,2.58
2022-09-11T12:10:33.445Z,2.10
2022-09-11T12:13:20.632Z,3.42
2022-09-11T12:16:11.366Z,2.80
2022-09-11T12:19:14.463Z,2.13
2022-09-11T12:22:11.766Z,3.15
2022-09-11T12:24:59.058Z,2.22
2022-09-11T12:27:45.036Z,1.73
2022-09-11T12:30:30.876Z,2.20
2022-09-11T12:33:48.401Z,1.73
2022-09-11T12:36:49.758Z,4.03
2022-09-11T12:39:40.112Z,3.97
2022-09-11T12:42:25.824Z,2.10
2022-09-11T12:45:34.660Z,2.00
2022-09-11T12:48:23.846Z,2.60
2022-09-11T12:51:20.978Z,2.03
2022-09-11T12:54:24.442Z,2.03
2022-09-11T12:57:22.363Z,2.03
2022-09-11T13:00:11.896Z,3.08
2022-09-11T13:02:58.847Z,1.85
2022-09-11T13:05:46.760Z,3.75
2022-09-11T13:08:36.570Z,3.58
2022-09-11T13:11:34.125Z,3.10
2022-09-11T13:14:49.463Z,3.17
2022-09-11T13:17:45.713Z,2.78
2022-09-11T13:20:30.906Z,1.58
2022-09-11T13:23:18.509Z,1.42
2022-09-11T13:26:06.359Z,2.15
2022-09-11T13:28:54.197Z,1.60
2022-09-11T13:31:39.256Z,2.15
2022-09-11T13:34:27.026Z,3.17
2022-09-11T13:37:14.914Z,2.10
2022-09-11T13:40:00.853Z,2.00
2022-09-11T13:42:46.489Z,2.35
2022-09-11T13:45:33.488Z,2.47
2022-09-11T13:48:22.939Z,2.15
2022-09-11T13:51:13.746Z,3.30
2022-09-11T13:54:13.015Z,3.22
2022-09-11T13:56:58.199Z,2.88
2022-09-11T13:59:44.718Z,3.17
2022-09-11T14:02:44.210Z,2.65
2022-09-11T14:05:33.197Z,2.85
2022-09-11T14:08:24.494Z,2.70
2022-09-11T14:11:21.886Z,4.55
2022-09-11T14:14:14.184Z,2.30
2022-09-11T14:17:01.408Z,3.70
2022-09-11T14:19:47.594Z,3.00
2022-09-11T14:22:32.974Z,2.63
2022-09-11T14:25:19.775Z,2.58
2022-09-11T14:28:05.204Z,4.45
2022-09-11T14:31:06.839Z,2.38
2022-09-11T14:34:18.631Z,2.90
2022-09-11T14:37:11.269Z,3.42
2022-09-11T14:39:59.117Z,2.28
2022-09-11T14:42:45.344Z,2.75
2022-09-11T14:45:31.365Z,2.65
2022-09-11T14:48:16.368Z,3.55
2022-09-11T14:51:04.137Z,2.42
2022-09-11T14:53:49.213Z,4.65
2022-09-11T14:56:34.639Z,5.68
2022-09-11T14:59:19.999Z,2.75
2022-09-11T15:02:11.511Z,2.63
2022-09-11T15:04:59.040Z,2.67
2022-09-11T15:07:47.486Z,3.00
2022-09-11T15:10:33.139Z,3.03
2022-09-11T15:13:18.486Z,3.78
2022-09-11T15:15:45.745Z,2.67
2022-09-11T15:18:12.420Z,3.30
2022-09-11T15:20:39.633Z,4.43
2022-09-11T15:23:06.560Z,3.40
2022-09-11T15:25:34.374Z,3.00
2022-09-11T15:28:02.439Z,2.88
2022-09-11T15:30:30.233Z,3.58
2022-09-11T15:32:56.826Z,3.85
2022-09-11T15:35:23.737Z,3.08
2022-09-11T15:37:50.838Z,3.40
2022-09-11T15:40:17.930Z,3.38
2022-09-11T15:42:44.783Z,3.65
2022-09-11T15:45:13.473Z,3.38
2022-09-11T15:47:40.630Z,3.10
2022-09-11T15:50:09.072Z,2.92
2022-09-11T15:52:36.691Z,3.20
2022-09-11T15:55:03.699Z,3.47
2022-09-11T15:57:31.290Z,3.38
2022-09-11T15:59:58.207Z,3.08
2022-09-11T16:02:26.202Z,3.58
2022-09-11T16:04:54.756Z,5.25
2022-09-11T16:07:21.837Z,3.17
2022-09-11T16:09:48.824Z,3.03
2022-09-11T16:12:16.284Z,4.70
2022-09-11T16:14:43.611Z,3.15
2022-09-11T16:17:10.596Z,2.92
2022-09-11T16:19:38.734Z,3.35
2022-09-11T16:22:06.176Z,3.58
2022-09-11T16:24:37.880Z,4.57
2022-09-11T16:27:09.583Z,4.30
2022-09-11T16:30:09.100Z,3.78
2022-09-11T16:32:29.434Z,3.60
2022-09-11T16:34:57.609Z,3.42
2022-09-11T16:37:24.513Z,5.22
2022-09-11T16:39:51.375Z,3.72
2022-09-11T16:42:21.116Z,5.53
2022-09-11T16:44:48.873Z,3.72
2022-09-11T16:47:16.687Z,4.25
2022-09-11T16:50:05.979Z,3.95
2022-09-11T16:52:32.114Z,5.28
2022-09-11T16:54:59.353Z,4.78
2022-09-11T16:57:29.500Z,3.95
2022-09-11T16:59:56.254Z,4.45
2022-09-11T17:02:25.928Z,3.33
2022-09-11T17:04:52.818Z,4.30
2022-09-11T17:07:20.757Z,4.82
2022-09-11T17:09:47.460Z,5.03
2022-09-11T17:12:17.980Z,3.92
2022-09-11T17:14:44.688Z,4.68
2022-09-11T17:17:12.463Z,3.95
2022-09-11T17:19:40.059Z,5.85
2022-09-11T17:22:08.443Z,6.32
2022-09-11T17:24:35.282Z,4.63
2022-09-11T17:27:02.376Z,3.28
2022-09-11T17:29:30.087Z,3.38
2022-09-11T17:32:16.697Z,4.45
2022-09-11T17:34:44.641Z,3.88
2022-09-11T17:37:11.322Z,5.40
2022-09-11T17:39:38.828Z,5.68
2022-09-11T17:42:11.010Z,5.65
2022-09-11T17:44:41.562Z,4.60
2022-09-11T17:47:09.303Z,3.83
2022-09-11T17:49:36.373Z,4.28
2022-09-11T17:52:03.531Z,5.25
2022-09-11T17:54:31.280Z,3.38
2022-09-11T17:56:58.554Z,3.55
2022-09-11T17:59:26.634Z,4.43
2022-09-11T18:01:53.834Z,4.68
2022-09-11T18:04:22.879Z,4.00
2022-09-11T18:06:50.391Z,4.20
2022-09-11T18:09:19.521Z,4.00
2022-09-11T18:11:48.042Z,4.00
2022-09-11T18:14:15.768Z,4.20
2022-09-11T18:16:45.132Z,4.38
2022-09-11T18:19:12.302Z,4.65
2022-09-11T18:21:39.172Z,4.35
2022-09-11T18:24:09.772Z,4.45
2022-09-11T18:26:40.024Z,4.30
2022-09-11T18:29:11.705Z,5.07
2022-09-11T18:31:41.209Z,4.70
2022-09-11T18:34:10.994Z,4.82
2022-09-11T18:36:39.504Z,5.63
2022-09-11T18:39:06.986Z,7.35
2022-09-11T18:41:36.996Z,6.30
2022-09-11T18:44:08.436Z,5.32
2022-09-11T18:46:37.384Z,5.35
2022-09-11T18:49:04.765Z,5.18
2022-09-11T18:51:31.587Z,4.47
2022-09-11T18:54:00.115Z,4.55
2022-09-11T18:56:28.523Z,4.30
2022-09-11T18:58:56.418Z,4.47
2022-09-11T19:01:51.431Z,3.83
2022-09-11T19:04:20.221Z,4.45
2022-09-11T19:06:47.647Z,5.78
2022-09-11T19:09:14.821Z,5.72
2022-09-11T19:11:42.728Z,5.68
2022-09-11T19:14:11.922Z,3.92
2022-09-11T19:16:39.989Z,4.53
2022-09-11T19:19:08.397Z,5.47
2022-09-11T19:21:38.316Z,5.30
2022-09-11T19:24:06.741Z,4.60
2022-09-11T19:26:39.290Z,4.45
2022-09-11T19:29:08.754Z,4.10
2022-09-11T19:31:36.161Z,5.43
2022-09-11T19:34:03.051Z,5.93
2022-09-11T19:36:31.204Z,4.15
2022-09-11T19:39:01.325Z,4.43
2022-09-11T19:41:30.175Z,5.53
2022-09-11T19:44:02.209Z,4.03
2022-09-11T19:46:30.383Z,4.97
2022-09-11T19:49:00.458Z,5.13
2022-09-11T19:51:29.888Z,6.05
2022-09-11T19:54:00.415Z,6.53
2022-09-11T19:56:27.714Z,5.18
2022-09-11T19:58:55.043Z,5.72
2022-09-11T20:01:28.366Z,6.22
2022-09-11T20:03:57.627Z,4.57
2022-09-11T20:06:26.992Z,5.28
2022-09-11T20:09:13.465Z,4.25
2022-09-11T20:11:41.441Z,4.90
2022-09-11T20:14:08.116Z,4.55
2022-09-11T20:16:35.662Z,5.60
2022-09-11T20:19:06.463Z,4.88
2022-09-11T20:21:39.078Z,5.40
2022-09-11T20:24:07.359Z,6.88
2022-09-11T20:26:35.677Z,6.20
2022-09-11T20:29:07.050Z,4.45
2022-09-11T20:31:42.358Z,4.65
2022-09-11T20:34:13.362Z,5.00
2022-09-11T20:36:40.210Z,5.55
2022-09-11T20:39:07.353Z,7.13
2022-09-11T20:41:35.983Z,5.18
2022-09-11T20:44:04.528Z,2.85
2022-09-11T20:46:32.649Z,3.47
2022-09-11T20:49:00.908Z,4.10
2022-09-11T20:51:28.744Z,4.53
2022-09-11T20:53:56.078Z,5.05
2022-09-11T20:56:23.869Z,7.00
2022-09-11T20:58:51.428Z,4.40
2022-09-11T21:01:22.208Z,3.85
2022-09-11T21:03:57.355Z,5.13
2022-09-11T21:06:27.346Z,5.13
2022-09-11T21:08:59.040Z,8.40
2022-09-11T21:11:27.017Z,5.28
2022-09-11T21:13:54.051Z,6.55
2022-09-11T21:16:21.216Z,4.88
2022-09-11T21:18:50.119Z,4.32
2022-09-11T21:21:17.337Z,6.10
2022-09-11T21:23:45.319Z,4.45
2022-09-11T21:26:14.318Z,5.18
2022-09-11T21:28:41.007Z,5.03
2022-09-11T21:31:08.433Z,5.00
2022-09-11T21:33:36.804Z,5.18
2022-09-11T21:36:04.728Z,2.95
2022-09-11T21:38:31.574Z,1.73
2022-09-11T21:41:00.089Z,2.92
2022-09-11T21:43:27.710Z,3.28
2022-09-11T21:45:54.477Z,3.72
2022-09-11T21:48:23.776Z,4.75
2022-09-11T21:50:50.991Z,6.65
2022-09-11T21:53:18.937Z,5.53
2022-09-11T21:55:51.109Z,2.90
2022-09-11T21:58:20.167Z,5.22
2022-09-11T22:00:48.406Z,5.18
2022-09-11T22:03:19.355Z,5.78
2022-09-11T22:05:49.142Z,5.53
2022-09-11T22:08:18.346Z,4.90
2022-09-11T22:10:48.288Z,4.93
2022-09-11T22:13:15.738Z,4.63
2022-09-11T22:15:48.691Z,6.22
2022-09-11T22:18:17.468Z,2.70
2022-09-11T22:20:45.485Z,2.90
2022-09-11T22:23:20.869Z,4.53
2022-09-11T22:25:47.724Z,3.03
2022-09-11T22:28:16.041Z,3.40
2022-09-11T22:30:44.056Z,5.60
2022-09-11T22:33:11.116Z,5.28
2022-09-11T22:35:38.069Z,4.95
2022-09-11T22:38:05.420Z,5.03
2022-09-11T22:40:33.497Z,4.45
2022-09-11T22:43:01.529Z,4.97
2022-09-11T22:45:29.495Z,4.30
2022-09-11T22:47:56.301Z,4.70
2022-09-11T22:50:23.012Z,4.95
2022-09-11T22:52:49.738Z,1.80
2022-09-11T22:55:17.753Z,4.05
2022-09-11T22:57:44.402Z,3.00
2022-09-11T23:00:12.832Z,4.25
2022-09-11T23:02:43.854Z,4.55
2022-09-11T23:05:30.578Z,4.45
2022-09-11T23:07:57.362Z,4.97
2022-09-11T23:10:25.675Z,4.90
2022-09-11T23:12:53.560Z,4.63
2022-09-11T23:15:21.270Z,4.47
2022-09-11T23:17:48.088Z,4.60
2022-09-11T23:20:15.056Z,4.00
2022-09-11T23:22:42.439Z,4.07
2022-09-11T23:25:11.081Z,3.55
2022-09-11T23:27:37.996Z,4.72
2022-09-11T23:30:05.292Z,4.60
2022-09-11T23:32:33.606Z,3.83
2022-09-11T23:35:00.347Z,6.40
2022-09-11T23:37:28.804Z,5.80
2022-09-11T23:39:55.526Z,5.32
2022-09-11T23:42:23.589Z,4.45
2022-09-11T23:44:50.374Z,4.75
2022-09-11T23:47:17.741Z,4.95
2022-09-11T23:49:44.404Z,3.33
2022-09-11T23:52:11.150Z,4.30
2022-09-11T23:54:39.324Z,4.97
2022-09-11T23:57:06.937Z,5.22
2022-09-11T23:59:36.173Z,8.00
